Погода Великомихайловкана 2 недели

Белгородская область, Россия

16 - 29 июля
  • 16июля
    Сегодня
    +21°
    +34°
    Небольшая облачность
    ВремяПогодаТемператураВлажностьДавлениеВетер, м/сВероятность осадков
    00:00Ясно и безоблачно+23°C69 %749 мм1.9 м/с2 %
    03:00Ясно и безоблачно+21°C77 %749 мм2.3 м/с2 %
    06:00Ясно и безоблачно+22°C79 %749 мм2.2 м/с2 %
    09:00Ясно и безоблачно+29°C57 %750 мм1.7 м/с2 %
    12:00Практически безоблачно+32°C43 %750 мм2.3 м/с2 %
    15:00Небольшая облачность+34°C40 %749 мм2.5 м/с2 %
    18:00Практически безоблачно+33°C41 %749 мм3.0 м/с4 %
    21:00Ясно и безоблачно+27°C56 %750 мм2.2 м/с2 %
  • 17июля
    Среда
    +20°
    +35°
    Ясно и безоблачно
    ВремяПогодаТемператураВлажностьДавлениеВетер, м/сВероятность осадков
    00:00Ясно и безоблачно+23°C67 %750 мм1.9 м/с2 %
    03:00Ясно и безоблачно+21°C75 %750 мм1.9 м/с2 %
    06:00Ясно и безоблачно+22°C76 %750 мм2.2 м/с2 %
    09:00Ясно и безоблачно+30°C52 %751 мм2.6 м/с2 %
    12:00Ясно и безоблачно+33°C42 %751 мм2.6 м/с2 %
    15:00Ясно и безоблачно+35°C37 %750 мм2.3 м/с2 %
    18:00Ясно и безоблачно+34°C38 %750 мм2.6 м/с2 %
    21:00Ясно и безоблачно+27°C52 %750 мм1.9 м/с2 %
  • 18июля
    Четверг
    +21°
    +36°
    Ясно и безоблачно
    ВремяПогодаТемператураВлажностьДавлениеВетер, м/сВероятность осадков
    00:00Ясно и безоблачно+24°C68 %750 мм1.7 м/с2 %
    03:00Ясно и безоблачно+21°C68 %750 мм1.7 м/с2 %
    06:00Ясно и безоблачно+22°C72 %750 мм1.4 м/с2 %
    09:00Ясно и безоблачно+31°C43 %750 мм0.6 м/с2 %
    12:00Практически безоблачно+33°C35 %749 мм0.9 м/с2 %
    15:00Ясно и безоблачно+36°C31 %748 мм0.6 м/с4 %
    18:00Практически безоблачно+36°C33 %748 мм2.0 м/с18 %
    21:00Практически безоблачно+29°C48 %747 мм1.9 м/с4 %
  • 19июля
    Пятница
    +18°
    +32°
    Небольшая облачность и лёгкий дождик
    ВремяПогодаТемператураВлажностьДавлениеВетер, м/сВероятность осадков
    00:00Облачно с прояснениями+25°C65 %747 мм1.5 м/с2 %
    03:00Ясно и безоблачно+22°C76 %746 мм1.5 м/с3 %
    06:00Ясно и безоблачно+23°C81 %746 мм2.2 м/с5 %
    09:00Небольшая облачность+28°C62 %746 мм3.8 м/с19 %
    12:00Практически безоблачно+30°C46 %745 мм4.5 м/с45 %
    15:00Небольшая облачность и лёгкий дождик+32°C47 %745 мм4.8 м/с51 %
    18:00Ясно и безоблачно+30°C47 %745 мм5.8 м/с36 %
    21:00Ясно и безоблачно+25°C58 %746 мм4.6 м/с7 %
  • 20июля
    Суббота
    +18°
    +31°
    Облачно с прояснениями
    ВремяПогодаТемператураВлажностьДавлениеВетер, м/сВероятность осадков
    00:00Ясно и безоблачно+22°C75 %746 мм3.6 м/с2 %
    03:00Облачно с прояснениями+19°C85 %746 мм1.8 м/с2 %
    06:00Ясно и безоблачно+19°C87 %746 мм2.5 м/с4 %
    09:00Ясно и безоблачно+26°C62 %746 мм3.6 м/с6 %
    12:00Небольшая облачность+29°C43 %746 мм3.8 м/с10 %
    15:00Облачно с прояснениями+30°C37 %745 мм3.0 м/с16 %
    18:00Облачно с прояснениями+30°C36 %745 мм2.6 м/с6 %
    21:00Облачно с прояснениями+24°C47 %745 мм2.0 м/с2 %
Мы используем cookies
Соглашаюсь